KMIB/MIB METAR and TAF weather

Enter ICAO airport designator
Station Type Date Time Source
KMIB METAR 2021/07/29 19:11 UTC NOAA

KMIB 291911Z AUTO 20007KT 10SM CLR 28/M03 A3020 RMK AO2 DZB08E11 SLP226 $


Station Type Date Time Source
KMIB Decoded METAR 2021/07/29 19:11 UTC NOAA

Minot Air Force Base, ND, United States (KMIB) 48-25N 101-21W
Jul 29, 2021 - 03:11 PM EDT / 2021.07.29 1911 UTC
Wind: from the SSW (200 degrees) at 8 MPH (7 KT):0
Visibility: 10 mile(s):0
Sky conditions: clear
Temperature: 82 F (28 C)
Dew Point: 26 F (-3 C)
Relative Humidity: 12%
Pressure (altimeter): 30.2 in. Hg (1022 hPa)
ob: KMIB 291911Z AUTO 20007KT 10SM CLR 28/M03 A3020 RMK AO2 DZB08E11 SLP226
cycle: 19

Station Type Date Time Source
KMIB TAF 2021/07/26 13:03 UTC NOAA

TAF TAF
AMD KMIB 261352Z 2613/2715 07009KT 9999 FEW100 QNH2980INS TX34/2621Z TN21/2614Z LAST NO
AMDS AFT 2613 NEXT 0209

Example: see airport list